sensor_id;sensor_type;location;lat;lon;timestamp;temperature;humidity
80367;DHT22;69680;42.660;23.366;2023-04-27T00:01:13;24.20;43.90
80367;DHT22;69680;42.660;23.366;2023-04-27T00:03:39;24.20;43.80
80367;DHT22;69680;42.660;23.366;2023-04-27T00:06:06;24.20;43.80
80367;DHT22;69680;42.660;23.366;2023-04-27T00:08:33;24.20;43.80
80367;DHT22;69680;42.660;23.366;2023-04-27T00:10:59;24.20;43.70
80367;DHT22;69680;42.660;23.366;2023-04-27T00:13:25;24.20;43.60
80367;DHT22;69680;42.660;23.366;2023-04-27T00:15:51;24.20;43.50
80367;DHT22;69680;42.660;23.366;2023-04-27T00:18:17;24.20;43.50
80367;DHT22;69680;42.660;23.366;2023-04-27T00:20:43;24.20;43.50
80367;DHT22;69680;42.660;23.366;2023-04-27T00:23:09;24.20;43.50
80367;DHT22;69680;42.660;23.366;2023-04-27T00:25:35;24.20;43.50
80367;DHT22;69680;42.660;23.366;2023-04-27T00:28:01;24.20;43.40
80367;DHT22;69680;42.660;23.366;2023-04-27T00:30:26;24.20;43.40
80367;DHT22;69680;42.660;23.366;2023-04-27T00:32:52;24.20;43.40
80367;DHT22;69680;42.660;23.366;2023-04-27T00:35:18;24.20;43.40
80367;DHT22;69680;42.660;23.366;2023-04-27T00:37:44;24.20;43.40
80367;DHT22;69680;42.660;23.366;2023-04-27T00:40:09;24.20;43.50
80367;DHT22;69680;42.660;23.366;2023-04-27T00:42:36;24.20;43.40
80367;DHT22;69680;42.660;23.366;2023-04-27T00:45:02;24.20;43.30
80367;DHT22;69680;42.660;23.366;2023-04-27T00:47:30;24.20;43.20
80367;DHT22;69680;42.660;23.366;2023-04-27T00:49:56;24.20;43.20
80367;DHT22;69680;42.660;23.366;2023-04-27T00:52:22;24.20;43.20
80367;DHT22;69680;42.660;23.366;2023-04-27T00:54:50;24.20;43.20
80367;DHT22;69680;42.660;23.366;2023-04-27T00:57:16;24.10;43.00
80367;DHT22;69680;42.660;23.366;2023-04-27T00:59:42;24.10;43.10
80367;DHT22;69680;42.660;23.366;2023-04-27T01:02:09;24.10;43.10
80367;DHT22;69680;42.660;23.366;2023-04-27T01:04:35;24.10;43.10
80367;DHT22;69680;42.660;23.366;2023-04-27T01:07:02;24.10;44.00
80367;DHT22;69680;42.660;23.366;2023-04-27T01:09:28;24.10;43.00
80367;DHT22;69680;42.660;23.366;2023-04-27T01:11:53;24.10;43.00
80367;DHT22;69680;42.660;23.366;2023-04-27T01:14:19;24.10;43.00
80367;DHT22;69680;42.660;23.366;2023-04-27T01:16:45;24.10;43.00
80367;DHT22;69680;42.660;23.366;2023-04-27T01:19:12;24.10;43.00
80367;DHT22;69680;42.660;23.366;2023-04-27T01:21:37;24.10;42.90
80367;DHT22;69680;42.660;23.366;2023-04-27T01:24:05;24.10;43.00
80367;DHT22;69680;42.660;23.366;2023-04-27T01:26:31;24.10;43.00
80367;DHT22;69680;42.660;23.366;2023-04-27T01:28:57;24.10;42.90
80367;DHT22;69680;42.660;23.366;2023-04-27T01:31:23;24.10;43.00
80367;DHT22;69680;42.660;23.366;2023-04-27T01:33:49;24.10;43.00
80367;DHT22;69680;42.660;23.366;2023-04-27T01:36:14;24.10;42.90
80367;DHT22;69680;42.660;23.366;2023-04-27T01:38:40;24.10;42.90
80367;DHT22;69680;42.660;23.366;2023-04-27T01:41:06;24.10;42.90
80367;DHT22;69680;42.660;23.366;2023-04-27T01:43:34;24.00;42.90
80367;DHT22;69680;42.660;23.366;2023-04-27T01:46:09;24.10;42.90
80367;DHT22;69680;42.660;23.366;2023-04-27T01:48:36;24.10;42.80
80367;DHT22;69680;42.660;23.366;2023-04-27T01:51:02;24.10;42.80
80367;DHT22;69680;42.660;23.366;2023-04-27T01:53:28;24.10;42.80
80367;DHT22;69680;42.660;23.366;2023-04-27T01:55:54;24.10;42.90
80367;DHT22;69680;42.660;23.366;2023-04-27T01:58:20;24.10;42.80
80367;DHT22;69680;42.660;23.366;2023-04-27T02:00:46;24.00;43.70
80367;DHT22;69680;42.660;23.366;2023-04-27T02:03:11;24.10;42.90
80367;DHT22;69680;42.660;23.366;2023-04-27T02:05:37;24.00;42.70
80367;DHT22;69680;42.660;23.366;2023-04-27T02:08:03;24.00;42.80
80367;DHT22;69680;42.660;23.366;2023-04-27T02:10:29;24.00;42.70
80367;DHT22;69680;42.660;23.366;2023-04-27T02:12:55;24.00;42.70
80367;DHT22;69680;42.660;23.366;2023-04-27T02:15:21;24.00;42.70
80367;DHT22;69680;42.660;23.366;2023-04-27T02:17:47;24.00;42.60
80367;DHT22;69680;42.660;23.366;2023-04-27T02:20:13;24.10;42.60
80367;DHT22;69680;42.660;23.366;2023-04-27T02:22:42;24.00;42.70
80367;DHT22;69680;42.660;23.366;2023-04-27T02:25:12;24.00;42.70
80367;DHT22;69680;42.660;23.366;2023-04-27T02:27:39;24.00;42.70
80367;DHT22;69680;42.660;23.366;2023-04-27T02:30:06;24.10;42.60
80367;DHT22;69680;42.660;23.366;2023-04-27T02:32:33;24.00;42.60
80367;DHT22;69680;42.660;23.366;2023-04-27T02:34:59;24.00;42.60
80367;DHT22;69680;42.660;23.366;2023-04-27T02:37:25;24.00;42.60
80367;DHT22;69680;42.660;23.366;2023-04-27T02:39:51;24.00;42.60
80367;DHT22;69680;42.660;23.366;2023-04-27T02:42:16;24.00;42.60
80367;DHT22;69680;42.660;23.366;2023-04-27T02:44:42;24.00;42.60
80367;DHT22;69680;42.660;23.366;2023-04-27T02:47:09;24.00;42.60
80367;DHT22;69680;42.660;23.366;2023-04-27T02:49:34;24.00;42.60
80367;DHT22;69680;42.660;23.366;2023-04-27T02:52:00;24.10;42.80
80367;DHT22;69680;42.660;23.366;2023-04-27T02:54:26;24.00;42.50
80367;DHT22;69680;42.660;23.366;2023-04-27T02:56:51;24.00;42.60
80367;DHT22;69680;42.660;23.366;2023-04-27T02:59:17;24.00;42.60
80367;DHT22;69680;42.660;23.366;2023-04-27T03:01:43;24.00;42.60
80367;DHT22;69680;42.660;23.366;2023-04-27T03:04:09;24.00;42.50
80367;DHT22;69680;42.660;23.366;2023-04-27T03:06:35;24.00;42.40
80367;DHT22;69680;42.660;23.366;2023-04-27T03:09:00;24.00;42.50
80367;DHT22;69680;42.660;23.366;2023-04-27T03:11:29;24.00;42.40
80367;DHT22;69680;42.660;23.366;2023-04-27T03:13:55;24.00;42.40
80367;DHT22;69680;42.660;23.366;2023-04-27T03:16:21;24.00;42.50
80367;DHT22;69680;42.660;23.366;2023-04-27T03:18:46;24.00;42.40
80367;DHT22;69680;42.660;23.366;2023-04-27T03:21:12;24.00;42.40
80367;DHT22;69680;42.660;23.366;2023-04-27T03:23:39;24.00;42.40
80367;DHT22;69680;42.660;23.366;2023-04-27T03:26:12;24.00;42.40
80367;DHT22;69680;42.660;23.366;2023-04-27T03:28:38;24.00;42.50
80367;DHT22;69680;42.660;23.366;2023-04-27T03:31:05;24.00;42.60
80367;DHT22;69680;42.660;23.366;2023-04-27T03:33:31;24.00;42.50
80367;DHT22;69680;42.660;23.366;2023-04-27T03:35:58;24.00;42.50
80367;DHT22;69680;42.660;23.366;2023-04-27T03:38:24;24.00;42.50
80367;DHT22;69680;42.660;23.366;2023-04-27T03:40:50;24.00;42.50
80367;DHT22;69680;42.660;23.366;2023-04-27T03:43:17;24.00;42.50
80367;DHT22;69680;42.660;23.366;2023-04-27T03:45:42;23.90;42.40
80367;DHT22;69680;42.660;23.366;2023-04-27T03:48:08;24.00;42.60
80367;DHT22;69680;42.660;23.366;2023-04-27T03:50:34;23.90;42.30
80367;DHT22;69680;42.660;23.366;2023-04-27T03:52:59;24.00;42.50
80367;DHT22;69680;42.660;23.366;2023-04-27T03:55:25;24.00;42.30
80367;DHT22;69680;42.660;23.366;2023-04-27T03:57:51;23.90;42.10
80367;DHT22;69680;42.660;23.366;2023-04-27T04:00:17;23.90;42.30
80367;DHT22;69680;42.660;23.366;2023-04-27T04:02:43;23.90;42.20
80367;DHT22;69680;42.660;23.366;2023-04-27T04:05:10;23.90;42.30
80367;DHT22;69680;42.660;23.366;2023-04-27T04:07:36;23.90;42.50
80367;DHT22;69680;42.660;23.366;2023-04-27T04:10:02;23.90;42.50
80367;DHT22;69680;42.660;23.366;2023-04-27T04:12:28;23.90;42.50
80367;DHT22;69680;42.660;23.366;2023-04-27T04:14:54;23.90;42.40
80367;DHT22;69680;42.660;23.366;2023-04-27T04:17:20;23.90;42.60
80367;DHT22;69680;42.660;23.366;2023-04-27T04:19:46;23.90;42.40
80367;DHT22;69680;42.660;23.366;2023-04-27T04:22:11;23.90;42.40
80367;DHT22;69680;42.660;23.366;2023-04-27T04:24:37;23.90;42.50
80367;DHT22;69680;42.660;23.366;2023-04-27T04:27:04;23.90;42.50
80367;DHT22;69680;42.660;23.366;2023-04-27T04:29:30;23.90;42.50
80367;DHT22;69680;42.660;23.366;2023-04-27T04:31:57;23.90;42.50
80367;DHT22;69680;42.660;23.366;2023-04-27T04:34:23;23.90;42.50
80367;DHT22;69680;42.660;23.366;2023-04-27T04:36:49;23.90;42.10
80367;DHT22;69680;42.660;23.366;2023-04-27T04:39:18;23.90;41.60
80367;DHT22;69680;42.660;23.366;2023-04-27T04:41:45;24.00;41.90
80367;DHT22;69680;42.660;23.366;2023-04-27T04:44:11;24.00;41.60
80367;DHT22;69680;42.660;23.366;2023-04-27T04:46:37;23.90;41.40
80367;DHT22;69680;42.660;23.366;2023-04-27T04:49:03;24.00;41.40
80367;DHT22;69680;42.660;23.366;2023-04-27T04:51:29;24.00;40.60
80367;DHT22;69680;42.660;23.366;2023-04-27T04:53:55;24.00;41.10
80367;DHT22;69680;42.660;23.366;2023-04-27T04:56:21;24.10;40.80
80367;DHT22;69680;42.660;23.366;2023-04-27T04:58:46;24.10;40.60
80367;DHT22;69680;42.660;23.366;2023-04-27T05:01:12;24.20;40.60
80367;DHT22;69680;42.660;23.366;2023-04-27T05:03:37;24.20;40.50
80367;DHT22;69680;42.660;23.366;2023-04-27T05:06:03;24.30;40.70
80367;DHT22;69680;42.660;23.366;2023-04-27T05:08:29;24.30;40.70
80367;DHT22;69680;42.660;23.366;2023-04-27T05:10:55;24.30;40.60
80367;DHT22;69680;42.660;23.366;2023-04-27T05:13:20;24.40;40.60
80367;DHT22;69680;42.660;23.366;2023-04-27T05:15:47;24.40;40.70
80367;DHT22;69680;42.660;23.366;2023-04-27T05:18:12;24.40;40.50
80367;DHT22;69680;42.660;23.366;2023-04-27T05:20:38;24.40;40.40
80367;DHT22;69680;42.660;23.366;2023-04-27T05:23:04;24.40;40.60
80367;DHT22;69680;42.660;23.366;2023-04-27T05:25:30;24.40;40.60
80367;DHT22;69680;42.660;23.366;2023-04-27T05:27:56;24.40;40.70
80367;DHT22;69680;42.660;23.366;2023-04-27T05:30:22;24.40;40.60
80367;DHT22;69680;42.660;23.366;2023-04-27T05:32:48;24.40;40.60
80367;DHT22;69680;42.660;23.366;2023-04-27T05:35:13;24.40;40.50
80367;DHT22;69680;42.660;23.366;2023-04-27T05:37:39;24.40;40.40
80367;DHT22;69680;42.660;23.366;2023-04-27T05:40:06;24.40;40.20
80367;DHT22;69680;42.660;23.366;2023-04-27T05:42:36;24.40;40.30
80367;DHT22;69680;42.660;23.366;2023-04-27T05:45:02;24.40;40.30
80367;DHT22;69680;42.660;23.366;2023-04-27T05:47:29;24.40;40.20
80367;DHT22;69680;42.660;23.366;2023-04-27T05:49:55;24.40;40.10
80367;DHT22;69680;42.660;23.366;2023-04-27T05:52:21;24.40;40.40
80367;DHT22;69680;42.660;23.366;2023-04-27T05:54:47;24.40;40.40
80367;DHT22;69680;42.660;23.366;2023-04-27T05:57:13;24.40;40.00
80367;DHT22;69680;42.660;23.366;2023-04-27T05:59:39;24.40;39.80
80367;DHT22;69680;42.660;23.366;2023-04-27T06:02:05;24.30;40.10
80367;DHT22;69680;42.660;23.366;2023-04-27T06:04:31;24.30;39.80
80367;DHT22;69680;42.660;23.366;2023-04-27T06:07:01;24.30;40.40
80367;DHT22;69680;42.660;23.366;2023-04-27T06:09:29;24.40;39.60
80367;DHT22;69680;42.660;23.366;2023-04-27T06:11:55;24.40;40.50
80367;DHT22;69680;42.660;23.366;2023-04-27T06:14:23;24.40;40.20
80367;DHT22;69680;42.660;23.366;2023-04-27T06:16:48;24.50;39.90
80367;DHT22;69680;42.660;23.366;2023-04-27T06:19:14;24.40;39.80
80367;DHT22;69680;42.660;23.366;2023-04-27T06:21:40;24.40;39.50
80367;DHT22;69680;42.660;23.366;2023-04-27T06:24:06;24.40;39.50
80367;DHT22;69680;42.660;23.366;2023-04-27T06:26:31;24.40;39.40
80367;DHT22;69680;42.660;23.366;2023-04-27T06:28:57;24.40;39.30
80367;DHT22;69680;42.660;23.366;2023-04-27T06:31:24;24.40;39.30
80367;DHT22;69680;42.660;23.366;2023-04-27T06:33:50;24.40;39.20
80367;DHT22;69680;42.660;23.366;2023-04-27T06:36:16;24.40;39.00
80367;DHT22;69680;42.660;23.366;2023-04-27T06:38:41;24.40;38.60
80367;DHT22;69680;42.660;23.366;2023-04-27T06:41:07;24.40;36.70
80367;DHT22;69680;42.660;23.366;2023-04-27T06:43:33;24.30;33.70
80367;DHT22;69680;42.660;23.366;2023-04-27T06:45:58;24.10;32.20
80367;DHT22;69680;42.660;23.366;2023-04-27T06:48:24;24.00;33.80
80367;DHT22;69680;42.660;23.366;2023-04-27T06:50:50;24.00;35.70
80367;DHT22;69680;42.660;23.366;2023-04-27T06:53:16;24.10;36.00
80367;DHT22;69680;42.660;23.366;2023-04-27T06:55:42;24.20;36.10
80367;DHT22;69680;42.660;23.366;2023-04-27T06:58:08;24.30;36.90
80367;DHT22;69680;42.660;23.366;2023-04-27T07:00:33;24.30;36.60
80367;DHT22;69680;42.660;23.366;2023-04-27T07:02:59;24.30;36.80
80367;DHT22;69680;42.660;23.366;2023-04-27T07:05:25;24.30;36.80
80367;DHT22;69680;42.660;23.366;2023-04-27T07:07:51;24.40;36.50
80367;DHT22;69680;42.660;23.366;2023-04-27T07:10:17;24.40;36.90
80367;DHT22;69680;42.660;23.366;2023-04-27T07:12:43;24.40;36.50
80367;DHT22;69680;42.660;23.366;2023-04-27T07:15:09;24.40;36.40
80367;DHT22;69680;42.660;23.366;2023-04-27T07:17:35;24.40;36.20
80367;DHT22;69680;42.660;23.366;2023-04-27T07:20:01;24.40;35.90
80367;DHT22;69680;42.660;23.366;2023-04-27T07:22:28;24.50;36.00
80367;DHT22;69680;42.660;23.366;2023-04-27T07:24:54;24.50;36.20
80367;DHT22;69680;42.660;23.366;2023-04-27T07:27:20;24.50;36.10
80367;DHT22;69680;42.660;23.366;2023-04-27T07:29:45;24.50;36.60
80367;DHT22;69680;42.660;23.366;2023-04-27T07:32:11;24.50;36.60
80367;DHT22;69680;42.660;23.366;2023-04-27T07:34:37;24.60;36.30
80367;DHT22;69680;42.660;23.366;2023-04-27T07:37:03;24.60;37.90
80367;DHT22;69680;42.660;23.366;2023-04-27T07:39:29;24.60;36.90
80367;DHT22;69680;42.660;23.366;2023-04-27T07:41:55;24.70;36.90
80367;DHT22;69680;42.660;23.366;2023-04-27T07:44:22;24.80;37.00
80367;DHT22;69680;42.660;23.366;2023-04-27T07:46:48;24.80;36.90
80367;DHT22;69680;42.660;23.366;2023-04-27T07:49:15;24.80;38.10
80367;DHT22;69680;42.660;23.366;2023-04-27T07:51:41;24.80;38.10
80367;DHT22;69680;42.660;23.366;2023-04-27T07:54:07;24.80;38.10
80367;DHT22;69680;42.660;23.366;2023-04-27T07:56:33;24.90;38.20
80367;DHT22;69680;42.660;23.366;2023-04-27T07:58:59;24.80;38.10
80367;DHT22;69680;42.660;23.366;2023-04-27T08:01:25;24.80;37.90
80367;DHT22;69680;42.660;23.366;2023-04-27T08:03:52;24.80;38.40
80367;DHT22;69680;42.660;23.366;2023-04-27T08:06:18;24.90;37.70
80367;DHT22;69680;42.660;23.366;2023-04-27T08:08:44;24.90;37.40
80367;DHT22;69680;42.660;23.366;2023-04-27T08:11:10;25.00;37.60
80367;DHT22;69680;42.660;23.366;2023-04-27T08:13:36;25.10;37.50
80367;DHT22;69680;42.660;23.366;2023-04-27T08:16:02;25.00;37.20
80367;DHT22;69680;42.660;23.366;2023-04-27T08:18:28;25.00;37.60
80367;DHT22;69680;42.660;23.366;2023-04-27T08:20:54;25.10;37.80
80367;DHT22;69680;42.660;23.366;2023-04-27T08:23:20;25.00;37.40
80367;DHT22;69680;42.660;23.366;2023-04-27T08:25:46;25.10;37.50
80367;DHT22;69680;42.660;23.366;2023-04-27T08:28:14;25.10;37.60
80367;DHT22;69680;42.660;23.366;2023-04-27T08:30:43;25.00;37.40
80367;DHT22;69680;42.660;23.366;2023-04-27T08:33:12;25.00;37.50
80367;DHT22;69680;42.660;23.366;2023-04-27T08:35:38;25.10;37.80
80367;DHT22;69680;42.660;23.366;2023-04-27T08:38:04;25.10;37.40
80367;DHT22;69680;42.660;23.366;2023-04-27T08:40:29;25.10;39.00
80367;DHT22;69680;42.660;23.366;2023-04-27T08:42:58;25.20;37.80
80367;DHT22;69680;42.660;23.366;2023-04-27T08:45:25;25.20;37.80
80367;DHT22;69680;42.660;23.366;2023-04-27T08:47:51;25.20;38.10
80367;DHT22;69680;42.660;23.366;2023-04-27T08:50:17;25.10;38.40
80367;DHT22;69680;42.660;23.366;2023-04-27T08:52:46;25.10;37.80
80367;DHT22;69680;42.660;23.366;2023-04-27T08:55:13;25.20;38.10
80367;DHT22;69680;42.660;23.366;2023-04-27T08:57:39;25.10;37.60
80367;DHT22;69680;42.660;23.366;2023-04-27T09:00:05;25.10;37.30
80367;DHT22;69680;42.660;23.366;2023-04-27T09:02:47;25.00;37.80
80367;DHT22;69680;42.660;23.366;2023-04-27T09:05:22;25.00;37.60
80367;DHT22;69680;42.660;23.366;2023-04-27T09:08:01;25.00;38.50
80367;DHT22;69680;42.660;23.366;2023-04-27T09:10:32;25.00;37.60
80367;DHT22;69680;42.660;23.366;2023-04-27T09:13:15;25.00;37.40
80367;DHT22;69680;42.660;23.366;2023-04-27T09:18:15;25.20;37.80
80367;DHT22;69680;42.660;23.366;2023-04-27T09:20:46;25.20;37.90
80367;DHT22;69680;42.660;23.366;2023-04-27T09:23:32;25.10;38.00
80367;DHT22;69680;42.660;23.366;2023-04-27T09:26:20;25.10;37.90
80367;DHT22;69680;42.660;23.366;2023-04-27T09:28:51;25.10;37.60
80367;DHT22;69680;42.660;23.366;2023-04-27T09:31:19;25.10;37.40
80367;DHT22;69680;42.660;23.366;2023-04-27T09:33:53;25.10;37.70
80367;DHT22;69680;42.660;23.366;2023-04-27T09:36:19;25.10;37.60
80367;DHT22;69680;42.660;23.366;2023-04-27T09:38:46;25.10;37.80
80367;DHT22;69680;42.660;23.366;2023-04-27T09:41:12;25.10;37.50
80367;DHT22;69680;42.660;23.366;2023-04-27T09:43:38;25.10;37.70
80367;DHT22;69680;42.660;23.366;2023-04-27T09:46:04;25.10;37.60
80367;DHT22;69680;42.660;23.366;2023-04-27T09:48:31;25.00;37.50
80367;DHT22;69680;42.660;23.366;2023-04-27T09:50:57;25.10;37.80
80367;DHT22;69680;42.660;23.366;2023-04-27T09:53:28;25.20;37.20
80367;DHT22;69680;42.660;23.366;2023-04-27T10:01:33;25.10;37.20
80367;DHT22;69680;42.660;23.366;2023-04-27T10:09:26;25.00;37.30
80367;DHT22;69680;42.660;23.366;2023-04-27T10:11:53;25.10;37.30
80367;DHT22;69680;42.660;23.366;2023-04-27T10:14:21;25.00;37.10
80367;DHT22;69680;42.660;23.366;2023-04-27T10:16:54;25.10;37.30
80367;DHT22;69680;42.660;23.366;2023-04-27T10:19:21;25.10;37.40
80367;DHT22;69680;42.660;23.366;2023-04-27T10:21:55;25.00;37.20
80367;DHT22;69680;42.660;23.366;2023-04-27T10:24:37;25.00;37.90
80367;DHT22;69680;42.660;23.366;2023-04-27T10:27:07;25.00;37.70
80367;DHT22;69680;42.660;23.366;2023-04-27T10:29:43;25.10;38.30
80367;DHT22;69680;42.660;23.366;2023-04-27T10:32:19;25.10;38.20
80367;DHT22;69680;42.660;23.366;2023-04-27T10:34:45;25.10;38.60
80367;DHT22;69680;42.660;23.366;2023-04-27T10:37:14;25.00;39.30
80367;DHT22;69680;42.660;23.366;2023-04-27T10:39:42;25.00;38.20
80367;DHT22;69680;42.660;23.366;2023-04-27T10:42:09;25.00;38.20
80367;DHT22;69680;42.660;23.366;2023-04-27T10:44:36;25.10;38.30
80367;DHT22;69680;42.660;23.366;2023-04-27T10:47:12;25.10;38.30
80367;DHT22;69680;42.660;23.366;2023-04-27T10:49:39;25.20;38.40
80367;DHT22;69680;42.660;23.366;2023-04-27T10:52:05;25.20;38.20
80367;DHT22;69680;42.660;23.366;2023-04-27T10:54:32;25.20;38.30
80367;DHT22;69680;42.660;23.366;2023-04-27T10:57:08;25.20;38.10
80367;DHT22;69680;42.660;23.366;2023-04-27T10:59:49;25.20;38.40
80367;DHT22;69680;42.660;23.366;2023-04-27T11:02:15;25.10;38.40
80367;DHT22;69680;42.660;23.366;2023-04-27T11:04:41;25.10;38.20
80367;DHT22;69680;42.660;23.366;2023-04-27T11:07:07;25.10;38.30
80367;DHT22;69680;42.660;23.366;2023-04-27T11:09:38;25.10;38.30
80367;DHT22;69680;42.660;23.366;2023-04-27T11:12:07;25.10;38.10
80367;DHT22;69680;42.660;23.366;2023-04-27T11:14:36;25.10;39.30
80367;DHT22;69680;42.660;23.366;2023-04-27T11:17:05;25.00;38.60
80367;DHT22;69680;42.660;23.366;2023-04-27T11:19:31;25.00;37.50
80367;DHT22;69680;42.660;23.366;2023-04-27T11:22:04;25.00;38.60
80367;DHT22;69680;42.660;23.366;2023-04-27T11:24:31;25.00;37.60
80367;DHT22;69680;42.660;23.366;2023-04-27T11:26:57;25.00;37.40
80367;DHT22;69680;42.660;23.366;2023-04-27T11:29:22;25.00;37.90
80367;DHT22;69680;42.660;23.366;2023-04-27T11:31:50;25.10;37.50
80367;DHT22;69680;42.660;23.366;2023-04-27T11:34:20;25.00;38.10
80367;DHT22;69680;42.660;23.366;2023-04-27T11:37:00;25.00;38.40
80367;DHT22;69680;42.660;23.366;2023-04-27T11:39:27;25.10;37.80
80367;DHT22;69680;42.660;23.366;2023-04-27T11:41:53;25.10;37.90
80367;DHT22;69680;42.660;23.366;2023-04-27T11:44:24;25.10;38.50
80367;DHT22;69680;42.660;23.366;2023-04-27T11:46:50;25.10;38.00
80367;DHT22;69680;42.660;23.366;2023-04-27T11:49:17;25.10;37.40
80367;DHT22;69680;42.660;23.366;2023-04-27T11:51:45;25.00;38.40
80367;DHT22;69680;42.660;23.366;2023-04-27T11:54:11;25.00;38.10
80367;DHT22;69680;42.660;23.366;2023-04-27T11:56:39;25.00;38.90
80367;DHT22;69680;42.660;23.366;2023-04-27T11:59:16;25.00;38.30
80367;DHT22;69680;42.660;23.366;2023-04-27T12:01:42;25.00;38.30
80367;DHT22;69680;42.660;23.366;2023-04-27T12:04:07;25.00;37.80
80367;DHT22;69680;42.660;23.366;2023-04-27T12:06:33;25.00;38.60
80367;DHT22;69680;42.660;23.366;2023-04-27T12:08:59;25.10;37.90
80367;DHT22;69680;42.660;23.366;2023-04-27T12:11:25;25.10;38.10
80367;DHT22;69680;42.660;23.366;2023-04-27T12:13:54;25.10;38.60
80367;DHT22;69680;42.660;23.366;2023-04-27T12:16:20;25.10;37.90
80367;DHT22;69680;42.660;23.366;2023-04-27T12:18:51;25.10;38.50
80367;DHT22;69680;42.660;23.366;2023-04-27T12:21:17;25.00;37.60
80367;DHT22;69680;42.660;23.366;2023-04-27T12:23:43;25.00;37.70
80367;DHT22;69680;42.660;23.366;2023-04-27T12:26:09;25.10;37.70
80367;DHT22;69680;42.660;23.366;2023-04-27T12:28:35;25.10;37.70
80367;DHT22;69680;42.660;23.366;2023-04-27T12:31:04;25.10;37.30
80367;DHT22;69680;42.660;23.366;2023-04-27T12:33:30;25.10;37.60
80367;DHT22;69680;42.660;23.366;2023-04-27T12:35:56;25.10;37.60
80367;DHT22;69680;42.660;23.366;2023-04-27T12:38:22;25.00;38.30
80367;DHT22;69680;42.660;23.366;2023-04-27T12:40:48;25.00;38.60
80367;DHT22;69680;42.660;23.366;2023-04-27T12:43:14;24.90;37.70
80367;DHT22;69680;42.660;23.366;2023-04-27T12:45:40;24.90;37.40
80367;DHT22;69680;42.660;23.366;2023-04-27T12:48:06;24.80;37.10
80367;DHT22;69680;42.660;23.366;2023-04-27T12:50:32;24.80;37.20
80367;DHT22;69680;42.660;23.366;2023-04-27T12:52:58;24.80;37.50
80367;DHT22;69680;42.660;23.366;2023-04-27T12:55:24;24.80;37.20
80367;DHT22;69680;42.660;23.366;2023-04-27T12:57:51;24.90;37.10
80367;DHT22;69680;42.660;23.366;2023-04-27T13:00:16;24.80;37.30
80367;DHT22;69680;42.660;23.366;2023-04-27T13:02:42;24.80;37.50
80367;DHT22;69680;42.660;23.366;2023-04-27T13:05:09;24.80;37.60
80367;DHT22;69680;42.660;23.366;2023-04-27T13:07:36;24.80;37.40
80367;DHT22;69680;42.660;23.366;2023-04-27T13:10:02;24.80;37.60
80367;DHT22;69680;42.660;23.366;2023-04-27T13:12:28;24.80;37.10
80367;DHT22;69680;42.660;23.366;2023-04-27T13:14:53;24.90;37.60
80367;DHT22;69680;42.660;23.366;2023-04-27T13:17:19;24.90;37.50
80367;DHT22;69680;42.660;23.366;2023-04-27T13:19:44;24.80;37.90
80367;DHT22;69680;42.660;23.366;2023-04-27T13:22:10;24.90;38.10
80367;DHT22;69680;42.660;23.366;2023-04-27T13:24:36;24.80;37.90
80367;DHT22;69680;42.660;23.366;2023-04-27T13:27:02;25.00;37.40
80367;DHT22;69680;42.660;23.366;2023-04-27T13:29:27;24.90;38.10
80367;DHT22;69680;42.660;23.366;2023-04-27T13:31:53;25.00;37.80
80367;DHT22;69680;42.660;23.366;2023-04-27T13:34:19;24.90;38.60
80367;DHT22;69680;42.660;23.366;2023-04-27T13:36:47;24.90;38.00
80367;DHT22;69680;42.660;23.366;2023-04-27T13:39:12;24.90;38.10
80367;DHT22;69680;42.660;23.366;2023-04-27T13:41:38;24.90;38.00
80367;DHT22;69680;42.660;23.366;2023-04-27T13:44:04;25.00;38.20
80367;DHT22;69680;42.660;23.366;2023-04-27T13:46:29;24.90;37.40
80367;DHT22;69680;42.660;23.366;2023-04-27T13:48:55;24.90;38.30
80367;DHT22;69680;42.660;23.366;2023-04-27T13:51:22;24.80;38.60
80367;DHT22;69680;42.660;23.366;2023-04-27T13:53:48;24.70;38.50
80367;DHT22;69680;42.660;23.366;2023-04-27T13:56:13;24.80;38.30
80367;DHT22;69680;42.660;23.366;2023-04-27T13:58:39;24.80;38.40
80367;DHT22;69680;42.660;23.366;2023-04-27T14:01:06;24.80;38.50
80367;DHT22;69680;42.660;23.366;2023-04-27T14:03:33;24.80;38.00
80367;DHT22;69680;42.660;23.366;2023-04-27T14:05:59;24.80;38.00
80367;DHT22;69680;42.660;23.366;2023-04-27T14:08:26;24.80;38.30
80367;DHT22;69680;42.660;23.366;2023-04-27T14:10:52;24.70;38.60
80367;DHT22;69680;42.660;23.366;2023-04-27T14:13:18;24.80;38.20
80367;DHT22;69680;42.660;23.366;2023-04-27T14:15:44;24.80;38.00
80367;DHT22;69680;42.660;23.366;2023-04-27T14:18:10;24.80;38.00
80367;DHT22;69680;42.660;23.366;2023-04-27T14:20:36;24.80;38.60
80367;DHT22;69680;42.660;23.366;2023-04-27T14:23:04;24.70;38.60
80367;DHT22;69680;42.660;23.366;2023-04-27T14:25:30;24.70;38.40
80367;DHT22;69680;42.660;23.366;2023-04-27T14:28:03;24.80;38.30
80367;DHT22;69680;42.660;23.366;2023-04-27T14:30:32;24.80;38.20
80367;DHT22;69680;42.660;23.366;2023-04-27T14:32:59;24.80;38.50
80367;DHT22;69680;42.660;23.366;2023-04-27T14:35:24;24.80;38.30
80367;DHT22;69680;42.660;23.366;2023-04-27T14:37:51;24.70;38.80
80367;DHT22;69680;42.660;23.366;2023-04-27T14:40:17;24.80;38.30
80367;DHT22;69680;42.660;23.366;2023-04-27T14:42:43;24.80;38.10
80367;DHT22;69680;42.660;23.366;2023-04-27T14:45:09;24.70;38.70
80367;DHT22;69680;42.660;23.366;2023-04-27T14:47:36;24.70;38.30
80367;DHT22;69680;42.660;23.366;2023-04-27T14:50:02;24.60;37.00
80367;DHT22;69680;42.660;23.366;2023-04-27T14:52:28;24.70;36.00
80367;DHT22;69680;42.660;23.366;2023-04-27T14:54:53;24.70;34.40
80367;DHT22;69680;42.660;23.366;2023-04-27T14:57:21;24.70;34.60
80367;DHT22;69680;42.660;23.366;2023-04-27T14:59:47;24.70;34.50
80367;DHT22;69680;42.660;23.366;2023-04-27T15:02:12;24.70;33.40
80367;DHT22;69680;42.660;23.366;2023-04-27T15:04:38;24.70;33.00
80367;DHT22;69680;42.660;23.366;2023-04-27T15:07:04;24.60;32.60
80367;DHT22;69680;42.660;23.366;2023-04-27T15:09:30;24.60;32.70
80367;DHT22;69680;42.660;23.366;2023-04-27T15:11:56;24.60;33.30
80367;DHT22;69680;42.660;23.366;2023-04-27T15:14:22;24.60;36.40
80367;DHT22;69680;42.660;23.366;2023-04-27T15:16:48;24.80;35.90
80367;DHT22;69680;42.660;23.366;2023-04-27T15:19:14;24.80;36.40
80367;DHT22;69680;42.660;23.366;2023-04-27T15:21:39;24.70;36.20
80367;DHT22;69680;42.660;23.366;2023-04-27T15:24:05;24.70;36.20
80367;DHT22;69680;42.660;23.366;2023-04-27T15:26:31;24.70;36.30